Time;durP1;ratioP1;P1;durP2;ratioP2;P2;SDS_P1;SDS_P2;PMS_P1;PMS_P2;Temp;Humidity;BMP_temperature;BMP_pressure;BME280_temperature;BME280_humidity;BME280_pressure;Samples;Min_cycle;Max_cycle;Signal;HPM_P1;HPM_P2
2022/04/11 00:01:40;;;;;;;21.95;6.53;;;;;;;;;;5049782;27;96275;-77
2022/04/11 00:04:06;;;;;;;17.13;7.15;;;;;;;;;;5046863;27;95945;-77
2022/04/11 00:06:32;;;;;;;18.85;7.82;;;;;;;;;;5041754;27;97052;-77
2022/04/11 00:08:58;;;;;;;14.25;6.85;;;;;;;;;;5039306;27;97520;-76
2022/04/11 00:11:25;;;;;;;16.80;7.35;;;;;;;;;;5043126;27;95549;-75
2022/04/11 00:13:51;;;;;;;13.07;7.43;;;;;;;;;;5038995;27;97057;-76
2022/04/11 00:16:17;;;;;;;25.45;7.75;;;;;;;;;;5042169;27;97315;-76
2022/04/11 00:18:44;;;;;;;19.73;7.85;;;;;;;;;;5044453;27;95813;-79
2022/04/11 00:21:10;;;;;;;12.43;7.28;;;;;;;;;;5040547;27;97390;-78
2022/04/11 00:23:38;;;;;;;35.75;8.82;;;;;;;;;;5042024;27;95844;-78
2022/04/11 00:26:04;;;;;;;35.05;7.68;;;;;;;;;;5039776;27;96883;-78
2022/04/11 00:28:31;;;;;;;11.90;6.68;;;;;;;;;;5039048;27;97420;-77
2022/04/11 00:30:57;;;;;;;24.02;7.18;;;;;;;;;;5040002;27;95372;-78
2022/04/11 00:33:24;;;;;;;9.60;6.45;;;;;;;;;;5039239;27;95737;-79
2022/04/11 00:36:09;;;;;;;16.92;6.65;;;;;;;;;;5039138;27;97496;-79
2022/04/11 00:38:35;;;;;;;10.18;6.50;;;;;;;;;;5032216;27;95604;-79
2022/04/11 00:41:01;;;;;;;22.92;7.70;;;;;;;;;;5042311;27;96840;-78
2022/04/11 00:43:38;;;;;;;12.77;6.70;;;;;;;;;;5042206;27;95712;-77
2022/04/11 00:46:06;;;;;;;12.63;6.25;;;;;;;;;;5032193;27;95630;-76
2022/04/11 00:48:32;;;;;;;10.40;6.30;;;;;;;;;;5034255;27;97382;-77
2022/04/11 00:51:19;;;;;;;24.20;7.03;;;;;;;;;;5043216;27;95440;-77
2022/04/11 00:53:46;;;;;;;35.42;8.75;;;;;;;;;;5032917;27;96922;-76
2022/04/11 00:56:13;;;;;;;13.23;7.45;;;;;;;;;;5043141;27;97040;-75
2022/04/11 00:58:40;;;;;;;8.32;6.03;;;;;;;;;;5035045;27;95894;-77
2022/04/11 01:01:06;;;;;;;23.35;7.40;;;;;;;;;;5033173;27;96920;-76
2022/04/11 01:03:33;;;;;;;11.48;6.72;;;;;;;;;;5045185;27;97497;-77
2022/04/11 01:06:00;;;;;;;13.65;7.63;;;;;;;;;;5040052;27;96822;-75
2022/04/11 01:08:27;;;;;;;13.55;7.03;;;;;;;;;;5031596;27;97141;-76
2022/04/11 01:10:53;;;;;;;11.13;7.38;;;;;;;;;;5038479;27;96223;-76
2022/04/11 01:13:20;;;;;;;14.25;7.15;;;;;;;;;;5038042;27;96802;-76
2022/04/11 01:15:54;;;;;;;8.50;6.07;;;;;;;;;;5037880;27;97301;-76
2022/04/11 01:18:20;;;;;;;13.55;6.75;;;;;;;;;;5035356;27;95555;-78
2022/04/11 01:20:46;;;;;;;20.20;7.22;;;;;;;;;;5037957;27;96725;-77
2022/04/11 01:23:13;;;;;;;13.10;6.30;;;;;;;;;;5041598;27;97037;-77
2022/04/11 01:25:39;;;;;;;22.65;7.28;;;;;;;;;;5041808;27;96752;-78
2022/04/11 01:28:06;;;;;;;11.73;6.32;;;;;;;;;;5038364;27;97319;-78
2022/04/11 01:30:32;;;;;;;8.85;5.82;;;;;;;;;;5041892;27;95404;-78
2022/04/11 01:32:58;;;;;;;10.13;5.68;;;;;;;;;;5034821;27;96745;-77
2022/04/11 01:35:26;;;;;;;9.40;5.72;;;;;;;;;;5040457;27;97242;-77
2022/04/11 01:37:53;;;;;;;9.52;5.22;;;;;;;;;;5046991;27;95331;-75
2022/04/11 01:40:20;;;;;;;8.63;4.50;;;;;;;;;;5039621;27;96724;-77
2022/04/11 01:42:46;;;;;;;9.13;4.88;;;;;;;;;;5031703;27;97546;-78
2022/04/11 01:45:13;;;;;;;7.25;5.07;;;;;;;;;;5041458;27;95979;-78
2022/04/11 01:50:25;;;;;;;12.13;4.60;;;;;;;;;;5040545;27;95850;-78
2022/04/11 01:52:51;;;;;;;12.35;5.32;;;;;;;;;;5040681;27;96103;-77
2022/04/11 01:55:17;;;;;;;16.33;5.50;;;;;;;;;;5038731;27;96934;-78
2022/04/11 01:57:44;;;;;;;13.15;5.97;;;;;;;;;;5036353;27;95969;-78
2022/04/11 02:00:29;;;;;;;14.48;6.60;;;;;;;;;;5037706;27;97088;-78
2022/04/11 02:02:55;;;;;;;15.32;6.32;;;;;;;;;;5040809;27;97576;-78
2022/04/11 02:05:22;;;;;;;12.57;7.32;;;;;;;;;;5041462;27;95402;-78
2022/04/11 02:07:48;;;;;;;12.70;6.95;;;;;;;;;;5042952;27;96943;-79
2022/04/11 02:10:15;;;;;;;11.38;6.65;;;;;;;;;;5036482;27;95869;-78
2022/04/11 02:12:41;;;;;;;11.35;7.07;;;;;;;;;;5037721;27;96850;-77
2022/04/11 02:15:08;;;;;;;11.65;7.88;;;;;;;;;;5036990;27;97373;-77
2022/04/11 02:17:34;;;;;;;12.48;7.85;;;;;;;;;;5037667;27;95538;-78
2022/04/11 02:20:01;;;;;;;23.10;9.10;;;;;;;;;;5037725;27;97162;-78
2022/04/11 02:22:27;;;;;;;25.02;8.95;;;;;;;;;;5037238;27;97266;-76
2022/04/11 02:24:53;;;;;;;14.80;7.35;;;;;;;;;;5034690;27;95513;-77
2022/04/11 02:27:20;;;;;;;19.15;7.45;;;;;;;;;;5038814;27;95814;-75
2022/04/11 02:29:46;;;;;;;14.82;6.55;;;;;;;;;;5036368;27;97317;-75
2022/04/11 02:32:12;;;;;;;12.93;6.20;;;;;;;;;;5040123;27;97144;-75
2022/04/11 02:34:39;;;;;;;8.65;5.57;;;;;;;;;;5037401;27;97214;-75
2022/04/11 02:37:05;;;;;;;12.77;5.80;;;;;;;;;;5031674;27;95752;-75
2022/04/11 02:39:31;;;;;;;8.93;5.50;;;;;;;;;;5044592;27;96911;-75
2022/04/11 02:41:58;;;;;;;12.73;6.00;;;;;;;;;;5040559;27;97429;-76
2022/04/11 02:44:24;;;;;;;17.63;6.03;;;;;;;;;;5045523;27;95921;-77
2022/04/11 02:46:50;;;;;;;14.18;5.70;;;;;;;;;;5038351;27;97144;-75
2022/04/11 02:49:17;;;;;;;20.90;6.40;;;;;;;;;;5036832;27;97223;-74
2022/04/11 02:51:43;;;;;;;10.88;6.75;;;;;;;;;;5041536;27;96670;-75
2022/04/11 02:54:09;;;;;;;17.73;5.95;;;;;;;;;;5039473;27;97402;-75
2022/04/11 02:56:36;;;;;;;17.20;6.18;;;;;;;;;;5039722;27;95352;-78
2022/04/11 02:59:02;;;;;;;23.88;6.82;;;;;;;;;;5032727;27;97126;-75
2022/04/11 03:01:28;;;;;;;15.90;5.53;;;;;;;;;;5042526;27;97882;-76
2022/04/11 03:03:55;;;;;;;27.23;6.95;;;;;;;;;;5040002;27;95230;-75
2022/04/11 03:06:21;;;;;;;15.65;5.78;;;;;;;;;;5034073;27;96855;-76
2022/04/11 03:08:47;;;;;;;16.98;6.95;;;;;;;;;;5039956;27;97419;-74
2022/04/11 03:11:14;;;;;;;12.07;6.07;;;;;;;;;;5040098;27;95299;-77
2022/04/11 03:13:47;;;;;;;17.73;7.43;;;;;;;;;;5043153;27;97232;-75
2022/04/11 03:16:13;;;;;;;12.05;6.97;;;;;;;;;;5036242;27;95461;-77
2022/04/11 03:18:40;;;;;;;14.88;6.93;;;;;;;;;;5040636;27;96852;-77
2022/04/11 03:21:06;;;;;;;29.10;7.47;;;;;;;;;;5040535;27;97740;-76
2022/04/11 03:23:33;;;;;;;23.15;7.65;;;;;;;;;;5045048;27;96771;-76
2022/04/11 03:25:59;;;;;;;11.57;6.40;;;;;;;;;;5032687;27;97450;-77
2022/04/11 03:28:26;;;;;;;12.50;6.88;;;;;;;;;;5033803;27;97594;-77
2022/04/11 03:30:52;;;;;;;15.52;7.03;;;;;;;;;;5041310;27;95572;-77
2022/04/11 03:33:18;;;;;;;11.07;6.38;;;;;;;;;;5043863;27;96803;-77
2022/04/11 03:35:45;;;;;;;17.80;7.00;;;;;;;;;;5045973;27;95416;-79
2022/04/11 03:38:11;;;;;;;20.70;7.40;;;;;;;;;;5050506;27;96850;-76
2022/04/11 03:40:37;;;;;;;14.60;6.65;;;;;;;;;;5051459;27;97634;-77
2022/04/11 03:43:04;;;;;;;13.85;6.95;;;;;;;;;;5052190;27;95608;-78
2022/04/11 03:45:30;;;;;;;11.60;6.93;;;;;;;;;;5047212;27;96785;-77
2022/04/11 03:47:56;;;;;;;21.27;7.85;;;;;;;;;;5031407;28;97476;-77
2022/04/11 03:50:23;;;;;;;9.15;6.53;;;;;;;;;;5031768;27;95473;-77
2022/04/11 03:52:50;;;;;;;19.92;7.30;;;;;;;;;;5031314;28;96912;-77
2022/04/11 03:55:16;;;;;;;10.35;6.75;;;;;;;;;;5033843;27;97408;-77
2022/04/11 03:57:43;;;;;;;13.57;6.80;;;;;;;;;;5032199;27;96954;-75
2022/04/11 04:00:09;;;;;;;11.85;7.75;;;;;;;;;;5043812;27;97328;-74
2022/04/11 04:02:36;;;;;;;17.92;7.35;;;;;;;;;;5051373;27;95432;-74
2022/04/11 04:05:02;;;;;;;14.38;7.70;;;;;;;;;;5044607;27;97683;-73
2022/04/11 04:07:28;;;;;;;13.82;7.25;;;;;;;;;;5049096;27;97425;-76
2022/04/11 04:09:55;;;;;;;11.93;7.28;;;;;;;;;;5049230;27;95498;-76
2022/04/11 04:12:21;;;;;;;18.55;7.57;;;;;;;;;;5048160;27;96821;-76
2022/04/11 04:14:48;;;;;;;11.85;7.50;;;;;;;;;;5049579;27;97560;-75
2022/04/11 04:17:15;;;;;;;14.75;7.25;;;;;;;;;;5043372;27;95372;-75
2022/04/11 04:19:41;;;;;;;16.67;8.18;;;;;;;;;;5048958;27;96602;-76
2022/04/11 04:22:08;;;;;;;19.02;7.47;;;;;;;;;;5038399;27;95355;-74
2022/04/11 04:24:36;;;;;;;15.77;7.65;;;;;;;;;;5035434;27;96673;-75
2022/04/11 04:27:03;;;;;;;12.05;7.18;;;;;;;;;;5043691;27;97351;-77
2022/04/11 04:29:30;;;;;;;13.30;7.68;;;;;;;;;;5030969;28;95760;-77
2022/04/11 04:31:56;;;;;;;21.58;7.50;;;;;;;;;;5042764;27;97066;-77
2022/04/11 04:34:25;;;;;;;12.23;6.65;;;;;;;;;;5049081;27;97812;-77
2022/04/11 19:08:33;;;;;;;14.70;8.35;;;;;;;;;;5047690;27;95352;-76
2022/04/11 19:10:59;;;;;;;14.48;8.10;;;;;;;;;;5042416;27;96284;-76
2022/04/11 19:13:30;;;;;;;16.15;8.45;;;;;;;;;;5044666;27;95269;-77
2022/04/11 19:15:57;;;;;;;13.30;8.52;;;;;;;;;;5025015;27;96628;-77
2022/04/11 19:18:23;;;;;;;14.85;8.20;;;;;;;;;;5041291;27;99809;-78
2022/04/11 19:20:49;;;;;;;16.13;9.10;;;;;;;;;;5044958;27;95424;-77
2022/04/11 19:23:17;;;;;;;18.10;8.23;;;;;;;;;;5044319;27;96699;-78
2022/04/11 19:25:43;;;;;;;16.85;8.52;;;;;;;;;;5044230;27;97744;-76
2022/04/11 19:28:15;;;;;;;22.90;8.38;;;;;;;;;;5047867;27;96224;-76
2022/04/11 19:30:59;;;;;;;15.65;8.15;;;;;;;;;;5029950;27;95931;-78
2022/04/11 19:33:25;;;;;;;13.98;8.43;;;;;;;;;;5042967;27;95386;-77
2022/04/11 19:35:53;;;;;;;19.30;8.63;;;;;;;;;;5044907;27;97201;-76
2022/04/11 19:38:20;;;;;;;15.43;7.80;;;;;;;;;;5044633;27;97293;-77
2022/04/11 19:40:46;;;;;;;18.95;8.27;;;;;;;;;;5045612;27;95286;-76
2022/04/11 19:43:13;;;;;;;13.88;8.07;;;;;;;;;;5043724;27;97500;-76
2022/04/11 19:45:39;;;;;;;14.40;8.30;;;;;;;;;;5040957;27;97328;-77
2022/04/11 19:50:51;;;;;;;13.93;7.85;;;;;;;;;;5047739;27;95816;-77
2022/04/11 19:53:17;;;;;;;12.85;8.10;;;;;;;;;;5043695;27;95940;-76
2022/04/11 19:55:44;;;;;;;16.10;7.95;;;;;;;;;;5044861;27;97009;-77
2022/04/11 19:58:10;;;;;;;15.27;8.60;;;;;;;;;;5042955;27;96225;-75
2022/04/11 20:00:38;;;;;;;19.20;8.50;;;;;;;;;;5045353;27;95837;-77
2022/04/11 20:03:04;;;;;;;25.80;8.70;;;;;;;;;;5044437;27;97063;-76
2022/04/11 20:05:31;;;;;;;13.40;8.35;;;;;;;;;;5044433;27;97616;-76
2022/04/11 20:08:14;;;;;;;12.82;8.25;;;;;;;;;;5044200;27;95289;-76
2022/04/11 20:10:41;;;;;;;20.42;8.38;;;;;;;;;;5045447;27;96988;-77
2022/04/11 20:13:07;;;;;;;14.45;7.65;;;;;;;;;;5044970;27;97363;-76
2022/04/11 20:15:34;;;;;;;26.30;8.88;;;;;;;;;;5044121;27;95622;-78
2022/04/11 20:18:00;;;;;;;26.73;8.30;;;;;;;;;;5040433;27;96346;-77
2022/04/11 20:20:27;;;;;;;21.27;9.65;;;;;;;;;;5030124;27;95561;-75
2022/04/11 20:22:54;;;;;;;14.90;7.72;;;;;;;;;;5028115;28;96550;-76
2022/04/11 20:25:20;;;;;;;15.07;7.88;;;;;;;;;;5016279;28;97515;-76
2022/04/11 20:27:52;;;;;;;;;;;;;;;;;;5029847;27;95596;-77
2022/04/11 20:30:18;;;;;;;14.27;7.38;;;;;;;;;;5028893;28;126308;-77
2022/04/11 20:32:45;;;;;;;16.13;7.40;;;;;;;;;;5027647;27;97322;-76
2022/04/11 20:35:14;;;;;;;14.02;7.85;;;;;;;;;;5024761;28;95633;-77
2022/04/11 20:37:41;;;;;;;12.15;7.65;;;;;;;;;;5026461;27;97587;-76
2022/04/11 20:40:07;;;;;;;11.90;8.00;;;;;;;;;;5029651;28;95991;-77
2022/04/11 20:42:34;;;;;;;12.68;7.93;;;;;;;;;;5027414;28;95567;-77
2022/04/11 20:45:01;;;;;;;15.95;7.97;;;;;;;;;;5028903;28;97127;-76
2022/04/11 20:47:28;;;;;;;13.95;7.68;;;;;;;;;;5029214;27;96351;-76
2022/04/11 20:49:54;;;;;;;13.38;7.50;;;;;;;;;;5029666;27;96900;-77
2022/04/11 20:52:20;;;;;;;11.63;7.07;;;;;;;;;;5021073;28;97781;-76
2022/04/11 20:57:31;;;;;;;13.88;7.63;;;;;;;;;;5033677;27;97297;-77
2022/04/11 20:59:58;;;;;;;14.57;8.00;;;;;;;;;;5030146;27;95354;-76
2022/04/11 21:02:24;;;;;;;20.10;8.18;;;;;;;;;;5028008;28;95725;-77
2022/04/11 21:04:51;;;;;;;13.57;7.57;;;;;;;;;;5025616;27;97693;-77
2022/04/11 21:07:17;;;;;;;25.02;9.60;;;;;;;;;;5028941;27;96095;-77
2022/04/11 21:09:43;;;;;;;16.98;8.23;;;;;;;;;;5030237;28;96719;-76
2022/04/11 21:12:10;;;;;;;16.55;8.48;;;;;;;;;;5029232;28;97216;-77
2022/04/11 21:14:36;;;;;;;17.33;8.00;;;;;;;;;;5030284;27;95955;-77
2022/04/11 21:17:02;;;;;;;13.50;8.40;;;;;;;;;;5029687;28;96583;-78
2022/04/11 21:19:29;;;;;;;12.98;7.95;;;;;;;;;;5032888;28;95600;-74
2022/04/11 21:21:55;;;;;;;14.15;8.20;;;;;;;;;;5030308;27;96838;-75
2022/04/11 21:24:21;;;;;;;15.63;7.45;;;;;;;;;;5029258;27;97329;-75
2022/04/11 21:26:48;;;;;;;19.38;8.45;;;;;;;;;;5030166;27;96686;-76
2022/04/11 21:29:14;;;;;;;14.27;7.90;;;;;;;;;;5029486;27;96671;-75
2022/04/11 21:31:41;;;;;;;15.35;8.02;;;;;;;;;;5027712;28;97212;-76
2022/04/11 21:34:08;;;;;;;15.10;7.85;;;;;;;;;;5028754;27;96033;-76
2022/04/11 21:36:34;;;;;;;16.48;7.68;;;;;;;;;;5028748;28;96723;-74
2022/04/11 21:39:00;;;;;;;17.42;8.68;;;;;;;;;;5031836;27;97549;-77
2022/04/11 21:41:27;;;;;;;15.32;7.88;;;;;;;;;;5029383;28;96918;-77
2022/04/11 21:43:53;;;;;;;14.15;8.43;;;;;;;;;;5040437;27;97362;-77
2022/04/11 21:46:20;;;;;;;13.13;7.90;;;;;;;;;;5050460;27;95542;-75
2022/04/11 21:48:48;;;;;;;13.35;7.95;;;;;;;;;;5050946;27;96719;-77
2022/04/11 21:51:14;;;;;;;11.98;7.32;;;;;;;;;;5050114;27;97343;-76
2022/04/11 21:53:40;;;;;;;23.83;8.65;;;;;;;;;;5051134;27;95407;-76
2022/04/11 21:56:07;;;;;;;19.27;8.32;;;;;;;;;;5049145;27;96726;-76
2022/04/11 21:58:33;;;;;;;14.15;7.75;;;;;;;;;;5030701;27;96612;-77
2022/04/11 22:01:00;;;;;;;12.77;7.63;;;;;;;;;;5033436;27;95185;-76
2022/04/11 22:03:26;;;;;;;13.07;8.45;;;;;;;;;;5030291;27;97163;-77
2022/04/11 22:05:54;;;;;;;18.08;8.18;;;;;;;;;;5030006;27;95464;-77
2022/04/11 22:08:38;;;;;;;18.55;8.07;;;;;;;;;;5029486;28;95218;-75
2022/04/11 22:11:04;;;;;;;16.20;8.00;;;;;;;;;;5031113;27;97295;-75
2022/04/11 22:13:31;;;;;;;14.88;8.23;;;;;;;;;;5030081;27;95326;-75
2022/04/11 22:16:15;;;;;;;13.40;7.57;;;;;;;;;;5029209;28;95313;-76
2022/04/11 22:18:42;;;;;;;15.13;8.73;;;;;;;;;;5029856;27;96197;-77
2022/04/11 22:21:08;;;;;;;13.15;7.90;;;;;;;;;;5030342;27;95167;-77
2022/04/11 22:23:35;;;;;;;15.63;8.15;;;;;;;;;;5033121;27;96795;-77
2022/04/11 22:26:01;;;;;;;17.42;8.73;;;;;;;;;;5029573;27;95762;-77
2022/04/11 22:28:27;;;;;;;16.98;7.57;;;;;;;;;;5030264;28;96511;-77
2022/04/11 22:30:54;;;;;;;15.10;8.18;;;;;;;;;;5029886;27;97337;-77
2022/04/11 22:33:20;;;;;;;27.15;8.82;;;;;;;;;;5029557;27;95420;-77
2022/04/11 22:35:46;;;;;;;20.00;8.55;;;;;;;;;;5029520;28;96759;-76
2022/04/11 22:38:13;;;;;;;32.42;9.25;;;;;;;;;;5029019;27;97423;-77
2022/04/11 22:40:39;;;;;;;19.02;8.57;;;;;;;;;;5040120;27;95428;-77
2022/04/11 22:43:06;;;;;;;15.45;8.35;;;;;;;;;;5048283;27;96804;-77
2022/04/11 22:45:32;;;;;;;16.13;8.50;;;;;;;;;;5053024;27;97415;-77
2022/04/11 22:48:16;;;;;;;15.68;8.43;;;;;;;;;;5047777;27;95329;-77
2022/04/11 22:50:42;;;;;;;20.40;8.27;;;;;;;;;;5049850;27;97272;-77
2022/04/11 22:53:08;;;;;;;14.05;7.82;;;;;;;;;;5048540;27;95493;-77
2022/04/11 22:55:35;;;;;;;15.93;8.68;;;;;;;;;;5049442;27;96738;-77
2022/04/11 22:58:01;;;;;;;17.55;8.38;;;;;;;;;;5048969;27;96222;-77
2022/04/11 23:00:27;;;;;;;17.23;8.85;;;;;;;;;;5050073;27;95321;-77
2022/04/11 23:02:54;;;;;;;12.82;7.90;;;;;;;;;;5049632;27;96985;-77
2022/04/11 23:05:20;;;;;;;29.52;8.82;;;;;;;;;;5048841;27;96129;-77
2022/04/11 23:07:47;;;;;;;12.43;7.55;;;;;;;;;;5051187;27;95414;-77
2022/04/11 23:10:13;;;;;;;16.35;8.07;;;;;;;;;;5036397;27;97499;-77
2022/04/11 23:12:53;;;;;;;13.68;8.40;;;;;;;;;;5033136;28;95511;-77
2022/04/11 23:15:24;;;;;;;17.58;8.43;;;;;;;;;;5031770;27;96767;-77
2022/04/11 23:17:51;;;;;;;32.53;9.68;;;;;;;;;;5032851;27;97250;-76
2022/04/11 23:20:18;;;;;;;14.05;9.05;;;;;;;;;;5032428;27;95083;-76
2022/04/11 23:22:44;;;;;;;16.85;8.15;;;;;;;;;;5032170;27;95758;-77
2022/04/11 23:25:16;;;;;;;13.15;8.52;;;;;;;;;;5031602;27;97473;-77
2022/04/11 23:27:43;;;;;;;13.07;8.60;;;;;;;;;;5026097;27;95437;-77
2022/04/11 23:30:10;;;;;;;24.55;9.18;;;;;;;;;;5007079;28;97346;-77
2022/04/11 23:32:36;;;;;;;12.63;8.13;;;;;;;;;;5008481;28;95864;-77
2022/04/11 23:35:03;;;;;;;29.85;8.88;;;;;;;;;;5008275;28;96842;-77
2022/04/11 23:37:29;;;;;;;15.00;8.75;;;;;;;;;;5008008;28;97363;-77
2022/04/11 23:39:55;;;;;;;24.70;9.40;;;;;;;;;;5008528;27;95564;-77
2022/04/11 23:42:21;;;;;;;17.23;8.55;;;;;;;;;;5048130;27;96776;-77
2022/04/11 23:44:48;;;;;;;16.80;8.90;;;;;;;;;;5048115;27;97397;-76
2022/04/11 23:47:14;;;;;;;18.13;8.95;;;;;;;;;;5048889;27;95309;-77
2022/04/11 23:49:40;;;;;;;16.27;8.80;;;;;;;;;;5051305;27;96872;-76
2022/04/11 23:52:07;;;;;;;42.67;9.82;;;;;;;;;;5048496;27;95301;-77
2022/04/11 23:54:33;;;;;;;18.38;8.00;;;;;;;;;;5051088;27;96707;-78
2022/04/11 23:57:00;;;;;;;16.88;8.05;;;;;;;;;;5051883;27;97340;-77
2022/04/11 23:59:26;;;;;;;14.20;8.95;;;;;;;;;;5051979;27;96139;-77
